Time;durP1;ratioP1;P1;durP2;ratioP2;P2;SDS_P1;SDS_P2;PMS_P1;PMS_P2;Temp;Humidity;BMP_temperature;BMP_pressure;BME280_temperature;BME280_humidity;BME280_pressure;Samples;Min_cycle;Max_cycle;Signal;HPM_P1;HPM_P2
2022/04/04 00:02:25;;;;;;;10.43;9.40;;;1.30;99.90;;;;;;5076043;28;20543;-61
2022/04/04 00:04:52;;;;;;;10.47;9.47;;;1.30;99.90;;;;;;5075786;28;21011;-60
2022/04/04 00:07:21;;;;;;;8.63;7.83;;;1.20;99.90;;;;;;5075824;28;20492;-60
2022/04/04 00:09:48;;;;;;;9.60;8.70;;;1.20;99.90;;;;;;5075896;28;20455;-61
2022/04/04 00:12:15;;;;;;;10.47;9.17;;;1.20;99.90;;;;;;5075960;28;20444;-61
2022/04/04 00:14:42;;;;;;;10.07;8.23;;;1.30;99.90;;;;;;5075455;28;20451;-61
2022/04/04 00:17:10;;;;;;;9.73;7.80;;;1.10;99.90;;;;;;5075394;28;20464;-61
2022/04/04 00:19:37;;;;;;;11.20;9.30;;;1.00;99.90;;;;;;5075640;28;20977;-61
2022/04/04 00:22:04;;;;;;;11.50;9.47;;;1.00;99.90;;;;;;5075671;28;20476;-61
2022/04/04 00:24:33;;;;;;;10.80;9.60;;;1.10;99.90;;;;;;5075257;28;20440;-61
2022/04/04 00:27:01;;;;;;;12.03;8.53;;;1.00;99.90;;;;;;5075188;28;20492;-61
2022/04/04 00:29:28;;;;;;;11.77;9.17;;;1.10;99.90;;;;;;5075558;28;20452;-61
2022/04/04 00:31:55;;;;;;;10.30;9.30;;;1.20;99.90;;;;;;5075621;28;20518;-61
2022/04/04 00:34:22;;;;;;;14.20;8.77;;;1.10;99.90;;;;;;5075590;28;20444;-61
2022/04/04 00:36:49;;;;;;;10.70;9.17;;;1.10;99.90;;;;;;5074828;28;20448;-60
2022/04/04 00:39:19;;;;;;;8.93;8.10;;;1.10;99.90;;;;;;5075003;28;20449;-60
2022/04/04 00:41:48;;;;;;;10.70;8.90;;;1.00;99.90;;;;;;5075401;28;20449;-60
2022/04/04 00:44:15;;;;;;;13.00;9.17;;;1.00;99.90;;;;;;5074925;28;20954;-60
2022/04/04 00:46:43;;;;;;;11.47;9.63;;;1.00;99.90;;;;;;5075086;28;20456;-60
2022/04/04 00:49:11;;;;;;;10.90;7.50;;;1.00;99.90;;;;;;5074837;28;20440;-61
2022/04/04 00:51:38;;;;;;;10.83;8.90;;;1.00;99.90;;;;;;5075248;28;20440;-61
2022/04/04 00:54:07;;;;;;;11.43;8.90;;;1.00;99.90;;;;;;5074738;28;20440;-61
2022/04/04 00:56:35;;;;;;;10.20;9.20;;;1.00;99.90;;;;;;5074568;28;20984;-61
2022/04/04 00:59:06;;;;;;;11.13;8.97;;;0.80;99.90;;;;;;5074986;28;20468;-61
2022/04/04 01:01:33;;;;;;;10.07;8.00;;;1.00;99.90;;;;;;5074565;28;20451;-60
2022/04/04 01:04:01;;;;;;;9.60;8.60;;;0.90;99.90;;;;;;5074811;28;20878;-61
2022/04/04 01:06:28;;;;;;;9.90;7.67;;;;;;;;;;5074925;28;20444;-61
2022/04/04 01:08:55;;;;;;;12.80;8.07;;;1.20;99.90;;;;;;5074298;28;20491;-61
2022/04/04 01:11:22;;;;;;;10.27;9.10;;;1.30;99.90;;;;;;5074403;28;20449;-61
2022/04/04 01:13:50;;;;;;;9.23;8.30;;;1.00;99.90;;;;;;5074493;28;20444;-61
2022/04/04 01:16:20;;;;;;;10.60;8.70;;;1.00;99.90;;;;;;5074578;28;20460;-62
2022/04/04 01:18:47;;;;;;;10.53;9.43;;;0.90;99.90;;;;;;5074466;28;20821;-61
2022/04/04 01:21:18;;;;;;;8.30;7.33;;;0.90;99.90;;;;;;5074203;28;20458;-60
2022/04/04 01:23:45;;;;;;;10.40;8.97;;;0.90;99.90;;;;;;5074611;28;20429;-61
2022/04/04 01:26:14;;;;;;;8.70;7.80;;;0.90;99.90;;;;;;5073861;28;20491;-61
2022/04/04 01:28:42;;;;;;;10.30;8.77;;;0.90;99.90;;;;;;5074193;28;20488;-61
2022/04/04 01:31:09;;;;;;;9.50;8.60;;;0.70;99.90;;;;;;5074446;28;20451;-61
2022/04/04 01:33:37;;;;;;;9.00;7.57;;;0.80;99.90;;;;;;5074190;28;20448;-61
2022/04/04 01:36:05;;;;;;;9.87;8.53;;;0.90;99.90;;;;;;5074197;28;20453;-61
2022/04/04 01:38:32;;;;;;;10.80;8.13;;;0.90;99.90;;;;;;5073921;28;20518;-61
2022/04/04 01:41:00;;;;;;;8.07;7.27;;;0.90;99.90;;;;;;5074090;28;20459;-61
2022/04/04 01:43:28;;;;;;;9.03;8.17;;;0.90;99.90;;;;;;5073752;28;20476;-61
2022/04/04 01:48:44;;;;;;;8.10;7.30;;;0.90;99.90;;;;;;5073049;28;20529;-61
2022/04/04 01:51:12;;;;;;;9.50;7.43;;;0.90;99.90;;;;;;5074081;28;20444;-61
2022/04/04 01:53:39;;;;;;;7.57;6.73;;;0.80;99.90;;;;;;5073927;28;20456;-61
2022/04/04 01:56:07;;;;;;;8.37;6.90;;;0.70;99.90;;;;;;5074127;28;20529;-60
2022/04/04 01:58:36;;;;;;;7.93;7.13;;;0.50;99.90;;;;;;5073887;28;20506;-61
2022/04/04 02:01:09;;;;;;;8.07;7.27;;;0.50;99.90;;;;;;5073770;28;20453;-60
2022/04/04 02:03:36;;;;;;;7.93;6.90;;;0.70;99.90;;;;;;5073504;28;20787;-61
2022/04/04 02:06:04;;;;;;;7.50;6.57;;;0.70;99.90;;;;;;5073858;28;20452;-60
2022/04/04 02:08:32;;;;;;;10.60;7.20;;;0.70;99.90;;;;;;5073220;28;20484;-60
2022/04/04 02:11:00;;;;;;;11.97;7.97;;;0.70;99.90;;;;;;5073647;28;20479;-61
2022/04/04 02:13:27;;;;;;;7.80;6.83;;;0.70;99.90;;;;;;5073443;28;20446;-61
2022/04/04 02:15:57;;;;;;;7.23;6.60;;;0.50;99.90;;;;;;5073271;28;20448;-61
2022/04/04 02:18:24;;;;;;;8.37;7.50;;;0.40;99.90;;;;;;5073565;28;20465;-61
2022/04/04 02:20:52;;;;;;;7.50;6.27;;;0.60;99.90;;;;;;5073607;28;20467;-61
2022/04/04 02:23:20;;;;;;;11.30;7.10;;;0.50;99.90;;;;;;5073305;28;20452;-61
2022/04/04 02:25:48;;;;;;;8.10;6.30;;;0.50;99.90;;;;;;5072099;28;20993;-60
2022/04/04 02:28:16;;;;;;;6.43;5.70;;;0.70;99.90;;;;;;5072994;28;20488;-60
2022/04/04 02:30:43;;;;;;;7.30;6.60;;;0.60;99.90;;;;;;5073536;28;20501;-60
2022/04/04 02:33:13;;;;;;;7.83;7.03;;;0.60;99.90;;;;;;5073067;28;20451;-61
2022/04/04 02:35:40;;;;;;;8.50;7.30;;;0.50;99.90;;;;;;5073343;28;20540;-61
2022/04/04 02:38:08;;;;;;;7.30;6.60;;;0.50;99.90;;;;;;5073069;28;20476;-61
2022/04/04 02:40:36;;;;;;;8.17;6.90;;;0.50;99.90;;;;;;5073296;28;20455;-61
2022/04/04 02:43:03;;;;;;;7.43;6.60;;;0.60;99.90;;;;;;5072961;28;20556;-61
2022/04/04 02:45:31;;;;;;;7.20;6.60;;;0.60;99.90;;;;;;5073253;28;20441;-60
2022/04/04 02:47:58;;;;;;;6.73;6.13;;;0.60;99.90;;;;;;5073143;28;20480;-61
2022/04/04 02:50:27;;;;;;;8.67;7.87;;;0.60;99.90;;;;;;5072986;28;20947;-61
2022/04/04 02:52:55;;;;;;;7.60;6.90;;;0.50;99.90;;;;;;5073213;28;20451;-61
2022/04/04 02:58:06;;;;;;;6.37;5.73;;;0.60;99.90;;;;;;5073165;28;20447;-60
2022/04/04 03:00:34;;;;;;;7.67;6.90;;;0.50;99.90;;;;;;5076388;28;20441;-61
2022/04/04 03:03:01;;;;;;;6.53;5.93;;;0.40;99.90;;;;;;5077196;28;20535;-60
2022/04/04 03:05:29;;;;;;;10.03;7.20;;;0.30;99.90;;;;;;5076893;28;20954;-60
2022/04/04 03:07:56;;;;;;;7.70;6.47;;;0.30;99.90;;;;;;5076611;28;20488;-60
2022/04/04 03:10:24;;;;;;;9.77;7.20;;;0.20;99.90;;;;;;5076637;28;20454;-60
2022/04/04 03:12:52;;;;;;;8.00;7.20;;;0.20;99.90;;;;;;5077082;28;20448;-60
2022/04/04 03:15:21;;;;;;;7.30;6.20;;;0.30;99.90;;;;;;5076891;28;20450;-60
2022/04/04 03:17:50;;;;;;;8.03;6.57;;;0.20;99.90;;;;;;5076544;28;20468;-60
2022/04/04 03:20:19;;;;;;;7.60;6.87;;;0.30;99.90;;;;;;5076945;28;20444;-61
2022/04/04 03:22:49;;;;;;;7.50;6.90;;;0.20;99.90;;;;;;5076504;28;20440;-60
2022/04/04 03:25:17;;;;;;;7.27;6.70;;;0.20;99.90;;;;;;5076486;28;20551;-61
2022/04/04 03:27:46;;;;;;;7.23;6.30;;;0.20;99.90;;;;;;5076647;28;20484;-60
2022/04/04 03:30:15;;;;;;;9.67;6.00;;;0.20;99.90;;;;;;5076703;28;20490;-60
2022/04/04 03:32:42;;;;;;;8.30;6.63;;;0.10;99.90;;;;;;5076283;28;20444;-60
2022/04/04 03:35:10;;;;;;;9.47;6.80;;;0.20;99.90;;;;;;5076561;28;20444;-60
2022/04/04 03:37:39;;;;;;;8.30;7.50;;;0.20;99.90;;;;;;5076242;28;20554;-60
2022/04/04 03:40:12;;;;;;;8.80;7.87;;;0.20;99.90;;;;;;5076126;28;21018;-60
2022/04/04 03:42:39;;;;;;;8.77;7.30;;;0.10;99.90;;;;;;5076393;28;20849;-60
2022/04/04 03:45:11;;;;;;;7.73;7.03;;;0.00;99.90;;;;;;5075961;28;20450;-61
2022/04/04 03:47:38;;;;;;;7.43;6.50;;;0.00;99.90;;;;;;5076334;28;20518;-60
2022/04/04 03:50:06;;;;;;;8.10;7.30;;;0.10;99.90;;;;;;5075925;28;20456;-61
2022/04/04 03:52:34;;;;;;;7.50;6.70;;;0.10;99.90;;;;;;5076209;28;20456;-61
2022/04/04 03:55:01;;;;;;;7.70;6.20;;;0.10;99.90;;;;;;5076289;28;20456;-61
2022/04/04 03:57:30;;;;;;;8.90;6.93;;;0.10;99.90;;;;;;5075768;28;20479;-60
2022/04/04 03:59:57;;;;;;;7.80;6.00;;;0.10;99.90;;;;;;5076073;28;20440;-60
2022/04/04 04:02:25;;;;;;;9.40;6.70;;;0.10;99.90;;;;;;5076144;28;20448;-60
2022/04/04 04:04:52;;;;;;;8.97;7.40;;;0.20;99.90;;;;;;5075692;28;20539;-60
2022/04/04 04:07:24;;;;;;;6.97;6.37;;;0.10;99.90;;;;;;5075960;28;20464;-60
2022/04/04 04:09:52;;;;;;;7.47;6.60;;;0.10;99.90;;;;;;5075728;28;20879;-60
2022/04/04 04:12:19;;;;;;;7.00;6.40;;;0.00;99.90;;;;;;5075121;28;20448;-61
2022/04/04 04:14:48;;;;;;;8.73;6.57;;;0.10;99.90;;;;;;5075773;28;20502;-61
2022/04/04 04:17:16;;;;;;;12.73;8.30;;;0.10;99.90;;;;;;5075935;28;20472;-61
2022/04/04 04:22:28;;;;;;;10.97;8.40;;;0.20;99.90;;;;;;5075645;28;20531;-61
2022/04/04 04:24:55;;;;;;;9.93;6.50;;;0.30;99.90;;;;;;5075497;28;20792;-60
2022/04/04 04:27:22;;;;;;;8.13;6.57;;;0.20;99.90;;;;;;5075182;28;20480;-60
2022/04/04 04:29:51;;;;;;;8.23;7.20;;;0.30;99.90;;;;;;5075668;28;20485;-60
2022/04/04 04:32:18;;;;;;;7.90;6.80;;;0.20;99.90;;;;;;5075174;28;20448;-61
2022/04/04 04:34:46;;;;;;;6.93;6.30;;;0.20;99.90;;;;;;5075594;28;20451;-60
2022/04/04 04:37:13;;;;;;;7.83;7.00;;;0.20;99.90;;;;;;5075443;28;20472;-61
2022/04/04 04:39:41;;;;;;;8.60;7.80;;;0.20;99.90;;;;;;5074972;28;20447;-60
2022/04/04 04:42:08;;;;;;;7.63;6.87;;;0.20;99.90;;;;;;5075387;28;20467;-60
2022/04/04 04:44:35;;;;;;;7.57;6.70;;;0.20;99.90;;;;;;5074972;28;20453;-60
2022/04/04 04:47:04;;;;;;;8.63;6.90;;;0.10;99.90;;;;;;5074780;28;21030;-60
2022/04/04 04:49:32;;;;;;;7.60;6.97;;;0.20;99.90;;;;;;5075167;28;20480;-61
2022/04/04 04:52:00;;;;;;;7.27;6.57;;;0.20;99.90;;;;;;5075193;28;20448;-61
2022/04/04 04:54:27;;;;;;;7.70;6.37;;;0.10;99.90;;;;;;5075089;28;20476;-60
2022/04/04 04:56:54;;;;;;;10.73;6.10;;;0.00;99.90;;;;;;5074482;28;20946;-61
2022/04/04 04:59:21;;;;;;;8.30;6.73;;;0.10;99.90;;;;;;5074482;28;20540;-61
2022/04/04 05:01:49;;;;;;;7.00;6.40;;;-0.10;99.90;;;;;;5074659;28;20444;-61
2022/04/04 05:04:18;;;;;;;8.77;6.10;;;0.00;99.90;;;;;;5074486;28;20788;-60
2022/04/04 05:06:48;;;;;;;7.90;7.03;;;0.00;99.90;;;;;;5075078;28;20808;-60
2022/04/04 05:09:16;;;;;;;9.13;7.57;;;0.00;99.90;;;;;;5074473;28;20963;-60
2022/04/04 05:11:43;;;;;;;7.33;6.63;;;0.10;99.90;;;;;;5074330;28;20444;-60
2022/04/04 05:14:15;;;;;;;9.43;6.77;;;0.10;99.90;;;;;;5074796;28;20444;-60
2022/04/04 05:16:43;;;;;;;7.77;7.00;;;0.00;99.90;;;;;;5074593;28;20515;-61
2022/04/04 05:19:11;;;;;;;6.37;5.37;;;-0.10;99.90;;;;;;5074201;28;20445;-61
2022/04/04 05:21:40;;;;;;;8.23;7.43;;;0.00;99.90;;;;;;5074092;28;20455;-61
2022/04/04 05:24:08;;;;;;;7.87;7.07;;;0.00;99.90;;;;;;5074374;28;20452;-60
2022/04/04 05:26:36;;;;;;;7.43;5.77;;;0.00;99.90;;;;;;5073540;28;20839;-60
2022/04/04 05:29:03;;;;;;;9.83;6.67;;;0.10;99.90;;;;;;5073762;28;20491;-61
2022/04/04 05:31:31;;;;;;;10.30;7.67;;;0.10;99.90;;;;;;5073794;28;20538;-61
2022/04/04 05:33:58;;;;;;;7.90;7.10;;;0.10;99.90;;;;;;5074012;28;20453;-61
2022/04/04 05:36:27;;;;;;;8.30;6.43;;;0.10;99.90;;;;;;5073781;28;20444;-61
2022/04/04 05:38:56;;;;;;;7.07;5.50;;;0.30;99.90;;;;;;5073790;28;20468;-60
2022/04/04 05:41:23;;;;;;;6.40;5.83;;;0.30;99.90;;;;;;5073974;28;20622;-60
2022/04/04 05:43:51;;;;;;;12.40;8.40;;;0.30;99.90;;;;;;5073641;28;20448;-60
2022/04/04 05:46:18;;;;;;;10.17;8.27;;;0.40;99.90;;;;;;5073886;28;20452;-61
2022/04/04 05:48:46;;;;;;;8.63;6.93;;;0.40;99.90;;;;;;5073811;28;20510;-61
2022/04/04 05:51:16;;;;;;;7.83;6.20;;;0.40;99.90;;;;;;5073445;28;20828;-62
2022/04/04 05:53:44;;;;;;;9.00;8.20;;;0.30;99.90;;;;;;5073718;28;20498;-61
2022/04/04 05:56:13;;;;;;;11.47;8.63;;;0.20;99.90;;;;;;5073634;28;20456;-60
2022/04/04 05:58:41;;;;;;;8.70;6.70;;;0.30;99.90;;;;;;5073538;28;20503;-60
2022/04/04 06:01:09;;;;;;;9.20;8.30;;;0.40;99.90;;;;;;5073255;28;20488;-60
2022/04/04 06:03:36;;;;;;;6.90;6.20;;;0.50;99.90;;;;;;5073016;28;20470;-61
2022/04/04 06:06:04;;;;;;;8.00;7.20;;;0.40;99.90;;;;;;5073398;28;20440;-61
2022/04/04 06:08:31;;;;;;;7.70;7.00;;;0.50;99.90;;;;;;5073307;28;20500;-60
2022/04/04 06:10:58;;;;;;;9.30;8.27;;;0.60;99.90;;;;;;5073209;28;20502;-60
2022/04/04 06:13:27;;;;;;;8.13;6.53;;;0.50;99.90;;;;;;5073403;28;20482;-61
2022/04/04 06:15:54;;;;;;;9.63;8.67;;;0.60;99.90;;;;;;5072975;28;20448;-61
2022/04/04 06:18:21;;;;;;;7.70;6.90;;;0.60;99.90;;;;;;5073062;28;21141;-61
2022/04/04 06:20:48;;;;;;;7.90;7.10;;;0.60;99.90;;;;;;5073448;28;20440;-62
2022/04/04 06:23:16;;;;;;;10.83;7.60;;;0.60;99.90;;;;;;5072834;28;20942;-61
2022/04/04 06:25:43;;;;;;;7.60;6.80;;;0.60;99.90;;;;;;5072704;28;20484;-61
2022/04/04 06:28:10;;;;;;;8.00;7.30;;;0.70;99.90;;;;;;5072975;28;21036;-61
2022/04/04 06:30:39;;;;;;;9.27;8.37;;;0.70;99.90;;;;;;5072848;28;20516;-61
2022/04/04 06:33:08;;;;;;;9.57;8.03;;;0.80;99.90;;;;;;5072804;28;20452;-61
2022/04/04 06:35:35;;;;;;;8.10;7.10;;;1.00;99.90;;;;;;5072647;28;20451;-61
2022/04/04 06:38:02;;;;;;;8.93;7.17;;;0.90;99.90;;;;;;5072728;28;20555;-61
2022/04/04 06:40:30;;;;;;;9.93;7.70;;;0.90;99.90;;;;;;5072560;28;20452;-61
2022/04/04 06:42:58;;;;;;;9.30;7.80;;;0.90;99.90;;;;;;5072545;28;20493;-60
2022/04/04 06:45:25;;;;;;;7.47;6.77;;;1.00;99.90;;;;;;5073144;28;20444;-60
2022/04/04 06:47:54;;;;;;;8.43;7.57;;;0.90;99.90;;;;;;5072938;28;20464;-60
2022/04/04 06:50:22;;;;;;;9.30;7.73;;;1.10;99.90;;;;;;5072793;28;20487;-60
2022/04/04 06:52:52;;;;;;;8.57;7.57;;;1.20;99.90;;;;;;5072655;28;20525;-60
2022/04/04 06:55:20;;;;;;;8.00;7.30;;;1.20;99.90;;;;;;5072619;28;20460;-60
2022/04/04 06:57:47;;;;;;;9.10;7.00;;;1.30;99.90;;;;;;5072908;28;20471;-60
2022/04/04 07:00:16;;;;;;;10.50;7.53;;;1.30;99.90;;;;;;5072681;28;20459;-60
2022/04/04 07:02:44;;;;;;;9.03;7.07;;;1.40;99.90;;;;;;5072780;28;20449;-60
2022/04/04 07:05:13;;;;;;;9.00;7.10;;;1.70;99.90;;;;;;5072342;28;20506;-60
2022/04/04 07:07:40;;;;;;;11.27;7.00;;;1.70;99.90;;;;;;5072860;28;20468;-59
2022/04/04 07:10:07;;;;;;;7.03;6.43;;;1.80;99.90;;;;;;5072387;28;20482;-59
2022/04/04 07:12:39;;;;;;;10.50;7.43;;;1.90;99.90;;;;;;5072348;28;20484;-59
2022/04/04 07:15:10;;;;;;;9.93;6.57;;;2.10;99.90;;;;;;5072632;28;20456;-60
2022/04/04 07:17:38;;;;;;;12.00;7.23;;;2.20;99.90;;;;;;5072684;28;20460;-59
2022/04/04 07:20:06;;;;;;;8.47;7.37;;;;;;;;;;5072516;28;20837;-60
2022/04/04 07:22:37;;;;;;;7.53;6.93;;;2.40;99.90;;;;;;5072190;28;20452;-60
2022/04/04 07:25:07;;;;;;;8.60;7.43;;;2.50;99.90;;;;;;5072252;28;20464;-60
2022/04/04 07:27:35;;;;;;;7.43;6.73;;;2.60;99.80;;;;;;5072739;28;20496;-60
2022/04/04 07:30:02;;;;;;;8.00;6.50;;;2.80;99.70;;;;;;5072047;28;20843;-59
2022/04/04 07:32:29;;;;;;;8.23;6.07;;;2.90;99.40;;;;;;5072712;28;20448;-59
2022/04/04 07:34:56;;;;;;;7.73;7.03;;;3.10;97.80;;;;;;5072361;28;20523;-59
2022/04/04 07:37:24;;;;;;;7.73;6.03;;;3.10;97.00;;;;;;5071976;28;20475;-59
2022/04/04 07:39:52;;;;;;;11.43;7.13;;;3.30;96.90;;;;;;5072270;28;20539;-59
2022/04/04 07:42:19;;;;;;;6.80;6.10;;;3.40;97.40;;;;;;5072261;28;20444;-59
2022/04/04 07:44:47;;;;;;;8.50;5.83;;;3.40;95.80;;;;;;5072472;28;20915;-59
2022/04/04 07:47:14;;;;;;;6.70;6.20;;;3.30;95.40;;;;;;5074582;28;20476;-59
2022/04/04 07:49:41;;;;;;;7.40;6.47;;;3.40;95.50;;;;;;5075604;28;21024;-59
2022/04/04 07:52:08;;;;;;;6.97;6.33;;;3.20;94.90;;;;;;5075683;28;20451;-59
2022/04/04 07:54:35;;;;;;;7.47;5.97;;;3.10;95.30;;;;;;5075697;28;20451;-60
2022/04/04 07:57:04;;;;;;;7.40;6.40;;;3.10;95.70;;;;;;5075503;28;20435;-59
2022/04/04 07:59:31;;;;;;;8.03;7.33;;;3.30;95.20;;;;;;5075730;28;20527;-59
2022/04/04 08:01:59;;;;;;;7.10;6.27;;;3.40;95.10;;;;;;5075095;28;20445;-59
2022/04/04 08:04:26;;;;;;;7.07;6.33;;;3.50;95.20;;;;;;5075678;28;20448;-59
2022/04/04 08:06:53;;;;;;;6.30;5.70;;;3.60;94.80;;;;;;5075225;28;20536;-59
2022/04/04 08:09:20;;;;;;;8.83;8.00;;;3.70;94.60;;;;;;5075201;28;20592;-63
2022/04/04 08:11:47;;;;;;;10.50;6.83;;;4.00;94.80;;;;;;5075693;28;20459;-60
2022/04/04 08:14:16;;;;;;;7.43;6.83;;;4.00;93.80;;;;;;5074936;28;20457;-60
2022/04/04 08:16:43;;;;;;;9.40;6.87;;;4.00;93.70;;;;;;5075227;28;20524;-60
2022/04/04 08:19:13;;;;;;;7.17;6.47;;;4.10;92.70;;;;;;5075380;28;20476;-61
2022/04/04 08:21:42;;;;;;;10.60;6.90;;;4.00;92.70;;;;;;5075831;28;20451;-62
2022/04/04 08:24:09;;;;;;;8.57;7.40;;;4.00;92.40;;;;;;5075384;28;20444;-60
2022/04/04 08:26:37;;;;;;;7.47;6.47;;;4.20;92.20;;;;;;5074701;28;20619;-60
2022/04/04 08:29:04;;;;;;;7.73;7.03;;;4.20;91.30;;;;;;5074808;28;20559;-61
2022/04/04 08:31:33;;;;;;;9.57;8.57;;;4.10;90.10;;;;;;5074906;28;20539;-60
2022/04/04 08:34:00;;;;;;;8.13;6.77;;;4.20;90.40;;;;;;5075093;28;20444;-60
2022/04/04 08:36:27;;;;;;;7.60;6.80;;;4.20;90.00;;;;;;5075154;28;20811;-60
2022/04/04 08:38:54;;;;;;;7.53;6.83;;;4.30;90.00;;;;;;5074819;28;20512;-60
2022/04/04 08:41:23;;;;;;;8.77;7.67;;;4.40;88.70;;;;;;5074704;28;20490;-60
2022/04/04 08:43:50;;;;;;;9.93;8.17;;;4.70;87.40;;;;;;5075257;28;20444;-60
2022/04/04 08:46:18;;;;;;;8.07;7.27;;;4.70;84.90;;;;;;5074713;28;20458;-60
2022/04/04 08:48:46;;;;;;;10.03;8.07;;;4.80;84.40;;;;;;5074454;28;20888;-60
2022/04/04 08:51:14;;;;;;;8.63;7.80;;;4.80;83.80;;;;;;5074487;28;20514;-60
2022/04/04 08:53:41;;;;;;;8.10;7.23;;;5.00;83.90;;;;;;5074489;28;20451;-60
2022/04/04 08:56:11;;;;;;;9.10;8.20;;;5.20;82.70;;;;;;5074595;28;20452;-60
2022/04/04 08:58:39;;;;;;;11.17;7.60;;;5.20;82.50;;;;;;5073854;28;20479;-60
2022/04/04 09:01:06;;;;;;;6.93;6.23;;;5.90;80.50;;;;;;5074799;28;20774;-60
2022/04/04 09:03:34;;;;;;;6.93;6.33;;;6.50;81.50;;;;;;5074281;28;20805;-60
2022/04/04 09:06:04;;;;;;;8.17;7.37;;;7.00;75.80;;;;;;5074171;28;20448;-59
2022/04/04 09:08:43;;;;;;;9.67;6.70;;;7.40;95.30;;;;;;5074707;28;20468;-60
2022/04/04 09:11:11;;;;;;;6.53;5.93;;;7.10;93.30;;;;;;5074183;28;20475;-60
2022/04/04 09:13:38;;;;;;;6.70;6.10;;;8.00;65.10;;;;;;5074408;28;20452;-61
2022/04/04 09:16:07;;;;;;;7.47;6.77;;;8.30;62.00;;;;;;5074063;28;20961;-60
2022/04/04 09:18:49;;;;;;;6.17;5.67;;;9.10;60.70;;;;;;5074002;28;20495;-59
2022/04/04 09:21:49;;;;;;;6.43;5.93;;;9.00;80.80;;;;;;5074017;28;20454;-59
2022/04/04 09:24:16;;;;;;;6.43;5.87;;;9.60;57.70;;;;;;5040205;28;20455;-60
2022/04/04 09:26:45;;;;;;;6.63;5.93;;;9.40;56.30;;;;;;5073724;28;20480;-59
2022/04/04 09:29:17;;;;;;;6.37;5.80;;;9.80;57.90;;;;;;5073733;28;21052;-59
2022/04/04 09:32:05;;;;;;;6.53;5.93;;;9.50;55.30;;;;;;5074216;28;20423;-61
2022/04/04 09:34:52;;;;;;;6.90;6.20;;;10.20;54.60;;;;;;5074335;28;20532;-60
2022/04/04 09:37:21;;;;;;;6.80;6.20;;;10.40;54.20;;;;;;5073930;28;20468;-62
2022/04/04 09:39:49;;;;;;;6.53;6.03;;;9.30;53.60;;;;;;5073962;28;20502;-59
2022/04/04 09:42:17;;;;;;;6.97;6.30;;;;;;;;;;5073869;28;20539;-58
2022/04/04 09:44:57;;;;;;;7.17;6.53;;;10.20;52.80;;;;;;5073559;28;20467;-58
2022/04/04 09:47:44;;;;;;;6.80;6.20;;;9.50;52.80;;;;;;5073652;28;20494;-58
2022/04/04 09:50:12;;;;;;;6.90;6.30;;;10.20;53.30;;;;;;5073416;28;20475;-59
2022/04/04 09:52:52;;;;;;;6.80;6.30;;;9.90;53.20;;;;;;5073100;28;20539;-58
2022/04/04 09:55:29;;;;;;;7.03;6.43;;;10.60;53.50;;;;;;5073447;28;20463;-59
2022/04/04 09:57:58;;;;;;;6.37;5.97;;;9.90;52.60;;;;;;5073604;28;20471;-59
2022/04/04 10:00:26;;;;;;;8.97;6.00;;;;;;;;;;5073588;28;20551;-59
2022/04/04 10:02:57;;;;;;;6.90;6.30;;;11.30;55.40;;;;;;5073477;28;20452;-59
2022/04/04 10:05:25;;;;;;;6.93;6.23;;;;;;;;;;5073529;28;20433;-59
2022/04/04 10:07:56;;;;;;;8.63;7.77;;;10.50;53.20;;;;;;5073186;28;20464;-60
2022/04/04 10:10:27;;;;;;;8.17;7.37;;;10.80;53.10;;;;;;5072647;28;20464;-60
2022/04/04 10:12:55;;;;;;;7.17;6.53;;;10.70;52.50;;;;;;5073354;28;20490;-60
2022/04/04 10:15:23;;;;;;;7.07;6.47;;;11.50;55.40;;;;;;5073109;28;20850;-60
2022/04/04 10:17:50;;;;;;;10.30;7.30;;;11.00;61.50;;;;;;5073148;28;20490;-60
2022/04/04 10:20:18;;;;;;;6.90;6.30;;;11.40;53.70;;;;;;5072771;28;20447;-60
2022/04/04 10:22:47;;;;;;;7.90;7.30;;;10.30;54.60;;;;;;5072902;28;20619;-60
2022/04/04 10:25:17;;;;;;;7.80;7.10;;;11.60;57.70;;;;;;5072409;28;20494;-60
2022/04/04 10:27:49;;;;;;;8.43;7.63;;;11.70;54.60;;;;;;5072815;28;20989;-61
2022/04/04 10:30:17;;;;;;;7.77;7.07;;;12.50;54.50;;;;;;5073026;28;20491;-59
2022/04/04 10:32:54;;;;;;;8.03;7.33;;;11.60;53.70;;;;;;5072657;28;20440;-59
2022/04/04 10:35:24;;;;;;;8.40;7.50;;;11.00;55.70;;;;;;5072750;28;20520;-60
2022/04/04 10:37:53;;;;;;;7.33;6.73;;;11.10;54.60;;;;;;5073071;28;20486;-59
2022/04/04 10:40:23;;;;;;;7.27;6.57;;;10.70;54.00;;;;;;5072920;28;20452;-60
2022/04/04 10:43:11;;;;;;;6.97;6.37;;;11.00;55.00;;;;;;5072740;28;20439;-60
2022/04/04 10:45:54;;;;;;;7.70;7.00;;;11.70;55.00;;;;;;5072846;28;20523;-60
2022/04/04 10:48:27;;;;;;;8.17;7.47;;;12.90;55.40;;;;;;5072635;28;20463;-60
2022/04/04 10:50:54;;;;;;;8.10;7.23;;;12.80;54.00;;;;;;5072549;28;20559;-60
2022/04/04 10:53:38;;;;;;;6.87;6.27;;;12.00;53.30;;;;;;5072448;28;20456;-60
2022/04/04 10:56:09;;;;;;;5.43;5.03;;;12.00;54.60;;;;;;5072902;28;20487;-60
2022/04/04 10:58:37;;;;;;;6.27;5.77;;;12.50;52.10;;;;;;5073044;28;20559;-60
2022/04/04 11:01:10;;;;;;;6.27;5.77;;;11.90;51.80;;;;;;5072600;28;20539;-60
2022/04/04 11:03:39;;;;;;;5.80;5.30;;;11.80;52.80;;;;;;5072580;28;20988;-61
2022/04/04 11:09:11;;;;;;;5.50;5.00;;;13.00;52.00;;;;;;5072604;28;20485;-60
2022/04/04 11:11:48;;;;;;;6.40;5.90;;;12.90;50.20;;;;;;5072429;28;20463;-61
2022/04/04 11:14:16;;;;;;;5.80;5.30;;;12.60;50.20;;;;;;5072835;28;20432;-60
2022/04/04 11:17:23;;;;;;;5.87;5.37;;;12.70;50.90;;;;;;5072192;28;20466;-61
2022/04/04 11:19:53;;;;;;;7.30;6.60;;;13.30;50.40;;;;;;5073284;28;20424;-60
2022/04/04 11:22:22;;;;;;;5.80;5.20;;;12.60;50.60;;;;;;5076342;28;20448;-61
2022/04/04 11:24:55;;;;;;;6.80;6.03;;;13.40;50.60;;;;;;5075941;28;20491;-60
2022/04/04 11:27:28;;;;;;;5.77;5.17;;;13.60;51.70;;;;;;5075392;28;20476;-60
2022/04/04 11:29:55;;;;;;;6.97;6.23;;;13.30;49.50;;;;;;5076247;28;20425;-60
2022/04/04 11:32:28;;;;;;;6.50;5.90;;;11.50;49.80;;;;;;5076361;28;20501;-60
2022/04/04 11:34:57;;;;;;;5.00;4.57;;;11.60;49.90;;;;;;5076007;28;20965;-60
2022/04/04 11:37:27;;;;;;;8.77;5.53;;;12.70;54.00;;;;;;5076073;28;20496;-60
2022/04/04 11:40:03;;;;;;;5.63;5.13;;;13.10;50.50;;;;;;5075976;28;20532;-60
2022/04/04 11:42:32;;;;;;;5.80;5.40;;;12.90;50.60;;;;;;5076015;28;20820;-60
2022/04/04 11:45:03;;;;;;;5.50;5.10;;;12.50;50.40;;;;;;5075992;28;20531;-60
2022/04/04 11:47:30;;;;;;;5.60;5.10;;;12.90;51.80;;;;;;5075722;28;20456;-60
2022/04/04 11:50:01;;;;;;;10.13;5.67;;;13.00;50.70;;;;;;5075769;28;20436;-60
2022/04/04 11:52:29;;;;;;;6.13;5.53;;;12.30;49.80;;;;;;5075529;28;20425;-60
2022/04/04 11:54:56;;;;;;;6.00;4.90;;;12.70;50.80;;;;;;5075709;28;20855;-60
2022/04/04 11:57:24;;;;;;;5.60;5.10;;;11.80;49.60;;;;;;5075782;28;20571;-61
2022/04/04 11:59:53;;;;;;;6.23;5.63;;;11.80;51.40;;;;;;5075536;28;20455;-61
2022/04/04 12:02:25;;;;;;;6.30;5.70;;;12.40;51.80;;;;;;5075138;28;20872;-60
2022/04/04 12:04:52;;;;;;;5.10;4.70;;;12.80;50.40;;;;;;5073855;28;20828;-59
2022/04/04 12:07:19;;;;;;;5.37;4.90;;;12.70;49.00;;;;;;5075641;28;20472;-62
2022/04/04 12:09:51;;;;;;;6.80;5.83;;;11.80;49.00;;;;;;5075494;28;20455;-61
2022/04/04 12:12:19;;;;;;;6.07;5.57;;;12.20;50.60;;;;;;5075384;28;20475;-60
2022/04/04 12:14:48;;;;;;;5.93;5.43;;;12.00;51.80;;;;;;5075325;28;20487;-60
2022/04/04 12:17:23;;;;;;;5.90;5.40;;;11.80;51.10;;;;;;5074896;28;20468;-60
2022/04/04 12:19:52;;;;;;;5.77;5.03;;;12.20;50.70;;;;;;5075193;28;20428;-61
2022/04/04 12:25:13;;;;;;;5.90;5.40;;;11.50;51.70;;;;;;5050374;28;20428;-62
2022/04/04 12:27:56;;;;;;;5.93;5.43;;;11.50;50.70;;;;;;5075459;28;20464;-61
2022/04/04 12:30:30;;;;;;;6.37;5.77;;;12.00;50.70;;;;;;5075176;28;20448;-61
2022/04/04 12:33:10;;;;;;;6.20;5.60;;;11.20;50.40;;;;;;5074664;28;20460;-61
2022/04/04 12:35:42;;;;;;;7.93;6.07;;;11.60;50.90;;;;;;5075317;28;20432;-62
2022/04/04 12:38:10;;;;;;;6.97;6.10;;;11.60;50.50;;;;;;5074885;28;20471;-60
2022/04/04 12:40:38;;;;;;;7.63;7.03;;;11.80;51.30;;;;;;5075029;28;20448;-64
2022/04/04 12:43:08;;;;;;;6.30;5.80;;;11.60;51.20;;;;;;5074840;28;20547;-60
2022/04/04 12:45:44;;;;;;;5.80;5.40;;;11.40;52.20;;;;;;5074777;28;20472;-60
2022/04/04 12:48:16;;;;;;;6.90;6.10;;;11.60;51.00;;;;;;5074421;28;20515;-62
2022/04/04 12:50:46;;;;;;;6.97;5.93;;;11.20;51.50;;;;;;5074672;28;20555;-61
2022/04/04 12:53:26;;;;;;;6.40;5.80;;;11.50;51.70;;;;;;5075043;28;20840;-62
2022/04/04 12:56:06;;;;;;;7.83;6.63;;;10.90;52.40;;;;;;5074821;28;20885;-61
2022/04/04 12:58:34;;;;;;;7.47;6.73;;;11.40;51.90;;;;;;5074549;28;20468;-61
2022/04/04 13:01:11;;;;;;;6.27;5.77;;;11.50;52.00;;;;;;5074195;28;21018;-61
2022/04/04 13:03:49;;;;;;;8.47;6.17;;;11.00;51.20;;;;;;5074262;28;20433;-61
2022/04/04 13:06:17;;;;;;;8.00;7.23;;;10.80;51.30;;;;;;5074027;28;20832;-61
2022/04/04 13:08:54;;;;;;;7.53;6.73;;;10.20;51.90;;;;;;5073946;28;20530;-62
2022/04/04 13:11:23;;;;;;;6.70;6.20;;;10.70;52.60;;;;;;5074476;28;20464;-65
2022/04/04 13:14:13;;;;;;;10.53;6.30;;;10.90;51.90;;;;;;5074020;28;20483;-62
2022/04/04 13:16:44;;;;;;;7.00;6.40;;;11.30;52.00;;;;;;5058765;28;20456;-65
2022/04/04 13:19:14;;;;;;;7.20;6.53;;;11.20;52.30;;;;;;5074794;28;20822;-61
2022/04/04 13:21:44;;;;;;;6.63;6.03;;;11.60;52.20;;;;;;5074114;28;20449;-62